カンクン の空港の天気 - METARとTAF

カンクン国際空港 ( MMUN / CUN ) - メキシコ キンタナ・ロー州カンクン
飛行場実況気象(Metar)
観測時間05/29 11:48 CDT (05/29 16:48 UTC)
風向・風速南南東 3m/s
視程10km以上
天気現象
全天の8割程度の雲 雲底高度 460m
全天を覆う雲 雲底高度 7620m
気温26℃
湿度84%
気圧1015hPa
METARMMUN 291648Z 16005KT 7SM BKN015CB OVC250 26/23 A2997 RMK 8/303
過去の天気等 Google飛行場航空写真 Wunderground天気予報

過去48時間のMETAR

飛行場予報(TAF)
発表時間: 5/29 04:58 CDT (5/29 09:58 UTC)
予報対象時間: 29日7時 CDT ~ 30日13時 CDT
風向・風速東南東 3m/s
視程10km以上
全天の4割程度の雲 雲底高度 7620m
29日11時 CDT から
風向・風速東南東 9m/s
視程10km以上
全天の4割程度の雲 雲底高度 610m
全天の8割程度の雲 雲底高度 7620m
29日17時 CDT から 確率 40% で
視程8050m
天気現象
全天の8割程度の積乱雲 雲底高度 460m
30日1時 CDT から
風向・風速東南東 3m/s
視程10km以上
天気現象煙霧
全天の4割程度の雲 雲底高度 610m
30日7時 CDT から
風向・風速東南東 5m/s
視程10km以上
全天の8割程度の雲 雲底高度 460m
TAF MMUN 290958Z 2912/3018 12005KT P6SM SCT250 TX31/2920Z TN28/2912Z
FM291600 12018KT P6SM SCT020 BKN250
PROB40 2922/3002 5SM RA BKN015CB
FM300600 12005KT 6SM HZ SCT020
FM301200 12010KT P6SM BKN015